sensor_id;sensor_type;location;lat;lon;timestamp;temperature;humidity
66752;SHT31;53663;42.676;23.238;2024-02-15T00:02:32;3.61;65.20
66752;SHT31;53663;42.676;23.238;2024-02-15T00:11:20;3.58;65.44
66752;SHT31;53663;42.676;23.238;2024-02-15T00:13:55;3.61;65.17
66752;SHT31;53663;42.676;23.238;2024-02-15T00:16:41;3.59;65.31
66752;SHT31;53663;42.676;23.238;2024-02-15T00:19:30;3.55;64.96
66752;SHT31;53663;42.676;23.238;2024-02-15T00:22:28;3.52;65.07
66752;SHT31;53663;42.676;23.238;2024-02-15T00:25:20;3.56;64.95
66752;SHT31;53663;42.676;23.238;2024-02-15T00:27:46;3.59;65.24
66752;SHT31;53663;42.676;23.238;2024-02-15T00:30:46;3.64;65.21
66752;SHT31;53663;42.676;23.238;2024-02-15T00:33:36;3.71;65.06
66752;SHT31;53663;42.676;23.238;2024-02-15T00:39:19;3.62;64.97
66752;SHT31;53663;42.676;23.238;2024-02-15T00:42:09;3.75;64.94
66752;SHT31;53663;42.676;23.238;2024-02-15T00:44:39;3.68;64.94
66752;SHT31;53663;42.676;23.238;2024-02-15T00:47:17;3.65;64.60
66752;SHT31;53663;42.676;23.238;2024-02-15T00:49:47;3.58;64.97
66752;SHT31;53663;42.676;23.238;2024-02-15T00:52:20;3.52;64.99
66752;SHT31;53663;42.676;23.238;2024-02-15T00:58:28;3.64;64.79
66752;SHT31;53663;42.676;23.238;2024-02-15T01:01:00;3.66;64.63
66752;SHT31;53663;42.676;23.238;2024-02-15T01:03:32;3.66;64.77
66752;SHT31;53663;42.676;23.238;2024-02-15T01:06:22;3.62;64.99
66752;SHT31;53663;42.676;23.238;2024-02-15T01:12:17;3.64;64.43
66752;SHT31;53663;42.676;23.238;2024-02-15T01:14:51;3.58;65.13
66752;SHT31;53663;42.676;23.238;2024-02-15T01:17:33;3.58;65.12
66752;SHT31;53663;42.676;23.238;2024-02-15T01:20:31;3.66;64.82
66752;SHT31;53663;42.676;23.238;2024-02-15T01:23:19;3.61;64.53
66752;SHT31;53663;42.676;23.238;2024-02-15T01:26:01;3.68;64.53
66752;SHT31;53663;42.676;23.238;2024-02-15T01:29:02;3.55;64.94
66752;SHT31;53663;42.676;23.238;2024-02-15T01:31:52;3.51;65.19
66752;SHT31;53663;42.676;23.238;2024-02-15T01:34:32;3.55;65.18
66752;SHT31;53663;42.676;23.238;2024-02-15T01:37:15;3.62;64.89
66752;SHT31;53663;42.676;23.238;2024-02-15T01:40:11;3.58;64.82
66752;SHT31;53663;42.676;23.238;2024-02-15T01:42:44;3.59;64.71
66752;SHT31;53663;42.676;23.238;2024-02-15T01:45:24;3.55;64.85
66752;SHT31;53663;42.676;23.238;2024-02-15T01:48:11;3.56;64.63
66752;SHT31;53663;42.676;23.238;2024-02-15T01:50:51;3.44;65.01
66752;SHT31;53663;42.676;23.238;2024-02-15T01:53:42;3.44;65.27
66752;SHT31;53663;42.676;23.238;2024-02-15T01:56:39;3.54;64.93
66752;SHT31;53663;42.676;23.238;2024-02-15T01:59:31;3.51;64.96
66752;SHT31;53663;42.676;23.238;2024-02-15T02:05:24;3.56;64.69
66752;SHT31;53663;42.676;23.238;2024-02-15T02:08:16;3.44;64.93
66752;SHT31;53663;42.676;23.238;2024-02-15T02:11:06;3.41;64.70
66752;SHT31;53663;42.676;23.238;2024-02-15T02:13:53;3.37;64.73
66752;SHT31;53663;42.676;23.238;2024-02-15T02:20:10;3.44;64.98
66752;SHT31;53663;42.676;23.238;2024-02-15T02:22:57;3.37;65.58
66752;SHT31;53663;42.676;23.238;2024-02-15T02:25:34;3.44;65.27
66752;SHT31;53663;42.676;23.238;2024-02-15T02:28:10;3.42;64.76
66752;SHT31;53663;42.676;23.238;2024-02-15T02:30:38;3.42;65.15
66752;SHT31;53663;42.676;23.238;2024-02-15T02:33:13;3.45;65.26
66752;SHT31;53663;42.676;23.238;2024-02-15T02:36:18;3.55;64.91
66752;SHT31;53663;42.676;23.238;2024-02-15T02:38:45;3.58;64.87
66752;SHT31;53663;42.676;23.238;2024-02-15T02:41:16;3.61;64.96
66752;SHT31;53663;42.676;23.238;2024-02-15T02:44:10;3.55;64.90
66752;SHT31;53663;42.676;23.238;2024-02-15T02:46:43;3.50;64.94
66752;SHT31;53663;42.676;23.238;2024-02-15T02:49:14;3.46;65.26
66752;SHT31;53663;42.676;23.238;2024-02-15T02:51:46;3.50;65.27
66752;SHT31;53663;42.676;23.238;2024-02-15T02:54:39;3.41;64.98
66752;SHT31;53663;42.676;23.238;2024-02-15T02:57:32;3.41;64.96
66752;SHT31;53663;42.676;23.238;2024-02-15T03:00:19;3.41;65.11
66752;SHT31;53663;42.676;23.238;2024-02-15T03:03:00;3.38;65.23
66752;SHT31;53663;42.676;23.238;2024-02-15T03:05:36;3.41;65.28
66752;SHT31;53663;42.676;23.238;2024-02-15T03:08:37;3.41;65.42
66752;SHT31;53663;42.676;23.238;2024-02-15T03:11:23;3.41;65.20
66752;SHT31;53663;42.676;23.238;2024-02-15T03:14:08;3.39;65.21
66752;SHT31;53663;42.676;23.238;2024-02-15T03:17:25;3.38;65.34
66752;SHT31;53663;42.676;23.238;2024-02-15T03:19:58;3.35;65.25
66752;SHT31;53663;42.676;23.238;2024-02-15T03:22:31;3.41;65.45
66752;SHT31;53663;42.676;23.238;2024-02-15T03:25:39;3.44;65.42
66752;SHT31;53663;42.676;23.238;2024-02-15T03:28:16;3.41;65.62
66752;SHT31;53663;42.676;23.238;2024-02-15T03:30:55;3.48;65.46
66752;SHT31;53663;42.676;23.238;2024-02-15T03:33:42;3.50;65.33
66752;SHT31;53663;42.676;23.238;2024-02-15T03:36:16;3.48;65.26
66752;SHT31;53663;42.676;23.238;2024-02-15T03:38:50;3.54;65.25
66752;SHT31;53663;42.676;23.238;2024-02-15T03:41:31;3.56;65.48
66752;SHT31;53663;42.676;23.238;2024-02-15T03:44:26;3.54;65.41
66752;SHT31;53663;42.676;23.238;2024-02-15T03:47:27;3.42;64.85
66752;SHT31;53663;42.676;23.238;2024-02-15T03:50:20;3.37;65.44
66752;SHT31;53663;42.676;23.238;2024-02-15T03:53:18;3.35;66.07
66752;SHT31;53663;42.676;23.238;2024-02-15T03:55:44;3.38;65.55
66752;SHT31;53663;42.676;23.238;2024-02-15T03:58:57;3.34;65.16
66752;SHT31;53663;42.676;23.238;2024-02-15T04:01:49;3.38;65.31
66752;SHT31;53663;42.676;23.238;2024-02-15T04:04:16;3.41;65.41
66752;SHT31;53663;42.676;23.238;2024-02-15T04:07:07;3.44;64.93
66752;SHT31;53663;42.676;23.238;2024-02-15T04:10:00;3.42;65.02
66752;SHT31;53663;42.676;23.238;2024-02-15T04:13:05;3.35;65.41
66752;SHT31;53663;42.676;23.238;2024-02-15T04:15:50;3.32;65.62
66752;SHT31;53663;42.676;23.238;2024-02-15T04:18:51;3.27;65.78
66752;SHT31;53663;42.676;23.238;2024-02-15T04:22:20;3.30;65.19
66752;SHT31;53663;42.676;23.238;2024-02-15T04:25:35;3.16;65.76
66752;SHT31;53663;42.676;23.238;2024-02-15T04:28:58;3.18;65.71
66752;SHT31;53663;42.676;23.238;2024-02-15T04:31:49;3.16;65.87
66752;SHT31;53663;42.676;23.238;2024-02-15T04:34:49;3.16;65.81
66752;SHT31;53663;42.676;23.238;2024-02-15T04:37:41;3.04;66.10
66752;SHT31;53663;42.676;23.238;2024-02-15T04:40:28;3.04;66.23
66752;SHT31;53663;42.676;23.238;2024-02-15T04:43:11;3.01;65.96
66752;SHT31;53663;42.676;23.238;2024-02-15T04:46:04;2.97;66.26
66752;SHT31;53663;42.676;23.238;2024-02-15T04:49:13;2.95;66.29
66752;SHT31;53663;42.676;23.238;2024-02-15T04:51:58;2.82;66.81
66752;SHT31;53663;42.676;23.238;2024-02-15T04:54:30;2.77;67.03
66752;SHT31;53663;42.676;23.238;2024-02-15T04:57:22;2.80;67.01
66752;SHT31;53663;42.676;23.238;2024-02-15T05:02:38;2.76;66.92
66752;SHT31;53663;42.676;23.238;2024-02-15T05:05:25;2.79;67.14
66752;SHT31;53663;42.676;23.238;2024-02-15T05:07:55;2.85;67.01
66752;SHT31;53663;42.676;23.238;2024-02-15T05:10:31;2.76;66.99
66752;SHT31;53663;42.676;23.238;2024-02-15T05:13:00;2.82;66.98
66752;SHT31;53663;42.676;23.238;2024-02-15T05:15:30;2.82;67.00
66752;SHT31;53663;42.676;23.238;2024-02-15T05:18:00;2.82;67.11
66752;SHT31;53663;42.676;23.238;2024-02-15T05:20:46;2.79;67.03
66752;SHT31;53663;42.676;23.238;2024-02-15T05:23:27;2.82;66.82
66752;SHT31;53663;42.676;23.238;2024-02-15T05:25:57;2.80;66.85
66752;SHT31;53663;42.676;23.238;2024-02-15T05:28:37;2.83;66.98
66752;SHT31;53663;42.676;23.238;2024-02-15T05:31:25;2.76;66.84
66752;SHT31;53663;42.676;23.238;2024-02-15T05:33:55;2.82;66.67
66752;SHT31;53663;42.676;23.238;2024-02-15T05:36:41;2.80;66.87
66752;SHT31;53663;42.676;23.238;2024-02-15T05:39:31;2.82;67.01
66752;SHT31;53663;42.676;23.238;2024-02-15T05:42:02;2.75;66.96
66752;SHT31;53663;42.676;23.238;2024-02-15T05:44:34;2.72;66.89
66752;SHT31;53663;42.676;23.238;2024-02-15T05:47:09;2.71;66.80
66752;SHT31;53663;42.676;23.238;2024-02-15T05:50:29;2.73;67.06
66752;SHT31;53663;42.676;23.238;2024-02-15T05:53:34;2.83;66.93
66752;SHT31;53663;42.676;23.238;2024-02-15T05:56:10;2.85;66.50
66752;SHT31;53663;42.676;23.238;2024-02-15T05:59:07;2.85;66.79
66752;SHT31;53663;42.676;23.238;2024-02-15T06:02:05;2.85;66.69
66752;SHT31;53663;42.676;23.238;2024-02-15T06:04:50;2.89;66.89
66752;SHT31;53663;42.676;23.238;2024-02-15T06:07:28;2.96;66.73
66752;SHT31;53663;42.676;23.238;2024-02-15T06:10:02;2.97;66.31
66752;SHT31;53663;42.676;23.238;2024-02-15T06:12:41;2.97;66.03
66752;SHT31;53663;42.676;23.238;2024-02-15T06:15:32;2.92;66.48
66752;SHT31;53663;42.676;23.238;2024-02-15T06:18:34;3.01;66.59
66752;SHT31;53663;42.676;23.238;2024-02-15T06:21:27;3.13;66.24
66752;SHT31;53663;42.676;23.238;2024-02-15T06:24:01;3.13;66.52
66752;SHT31;53663;42.676;23.238;2024-02-15T06:26:33;3.20;66.05
66752;SHT31;53663;42.676;23.238;2024-02-15T06:29:14;3.27;65.80
66752;SHT31;53663;42.676;23.238;2024-02-15T06:32:04;3.45;65.05
66752;SHT31;53663;42.676;23.238;2024-02-15T06:35:06;3.45;64.88
66752;SHT31;53663;42.676;23.238;2024-02-15T06:37:56;3.58;64.64
66752;SHT31;53663;42.676;23.238;2024-02-15T06:40:52;3.72;64.41
66752;SHT31;53663;42.676;23.238;2024-02-15T06:46:35;4.07;64.00
66752;SHT31;53663;42.676;23.238;2024-02-15T06:49:09;4.24;63.27
66752;SHT31;53663;42.676;23.238;2024-02-15T06:51:39;4.48;62.24
66752;SHT31;53663;42.676;23.238;2024-02-15T06:54:21;4.72;61.79
66752;SHT31;53663;42.676;23.238;2024-02-15T06:56:58;4.93;60.84
66752;SHT31;53663;42.676;23.238;2024-02-15T06:59:40;5.37;60.33
66752;SHT31;53663;42.676;23.238;2024-02-15T07:02:18;6.30;58.08
66752;SHT31;53663;42.676;23.238;2024-02-15T07:04:57;8.05;54.53
66752;SHT31;53663;42.676;23.238;2024-02-15T07:07:42;8.02;51.67
66752;SHT31;53663;42.676;23.238;2024-02-15T07:10:23;7.90;51.35
66752;SHT31;53663;42.676;23.238;2024-02-15T07:12:53;7.62;51.71
66752;SHT31;53663;42.676;23.238;2024-02-15T07:15:25;7.62;52.16
66752;SHT31;53663;42.676;23.238;2024-02-15T07:18:09;7.53;52.72
66752;SHT31;53663;42.676;23.238;2024-02-15T07:20:42;7.71;51.97
66752;SHT31;53663;42.676;23.238;2024-02-15T07:23:18;8.33;50.79
66752;SHT31;53663;42.676;23.238;2024-02-15T07:26:05;10.57;46.83
66752;SHT31;53663;42.676;23.238;2024-02-15T07:28:53;14.75;39.33
66752;SHT31;53663;42.676;23.238;2024-02-15T07:31:40;17.88;33.72
66752;SHT31;53663;42.676;23.238;2024-02-15T07:34:33;20.24;28.03
66752;SHT31;53663;42.676;23.238;2024-02-15T07:37:30;21.78;25.55
66752;SHT31;53663;42.676;23.238;2024-02-15T07:40:05;23.22;24.00
66752;SHT31;53663;42.676;23.238;2024-02-15T07:42:46;23.79;23.03
66752;SHT31;53663;42.676;23.238;2024-02-15T07:45:37;25.30;21.12
66752;SHT31;53663;42.676;23.238;2024-02-15T07:48:31;25.70;20.66
66752;SHT31;53663;42.676;23.238;2024-02-15T07:51:20;26.12;20.50
66752;SHT31;53663;42.676;23.238;2024-02-15T07:54:03;26.57;19.48
66752;SHT31;53663;42.676;23.238;2024-02-15T07:56:41;27.53;18.78
66752;SHT31;53663;42.676;23.238;2024-02-15T07:59:30;27.65;18.36
66752;SHT31;53663;42.676;23.238;2024-02-15T08:02:18;26.87;19.22
66752;SHT31;53663;42.676;23.238;2024-02-15T08:05:07;27.53;18.50
66752;SHT31;53663;42.676;23.238;2024-02-15T08:07:47;28.58;17.91
66752;SHT31;53663;42.676;23.238;2024-02-15T08:10:51;29.03;17.15
66752;SHT31;53663;42.676;23.238;2024-02-15T08:13:30;29.78;16.82
66752;SHT31;53663;42.676;23.238;2024-02-15T08:16:12;30.84;16.54
66752;SHT31;53663;42.676;23.238;2024-02-15T08:18:48;30.43;16.27
66752;SHT31;53663;42.676;23.238;2024-02-15T08:21:33;30.87;16.59
66752;SHT31;53663;42.676;23.238;2024-02-15T08:24:18;31.72;15.52
66752;SHT31;53663;42.676;23.238;2024-02-15T08:26:57;32.85;15.18
66752;SHT31;53663;42.676;23.238;2024-02-15T08:29:34;33.26;14.79
66752;SHT31;53663;42.676;23.238;2024-02-15T08:32:12;33.17;14.73
66752;SHT31;53663;42.676;23.238;2024-02-15T08:34:46;32.31;14.86
66752;SHT31;53663;42.676;23.238;2024-02-15T08:37:14;32.23;15.12
66752;SHT31;53663;42.676;23.238;2024-02-15T08:39:48;32.21;15.36
66752;SHT31;53663;42.676;23.238;2024-02-15T08:42:22;31.82;14.91
66752;SHT31;53663;42.676;23.238;2024-02-15T08:44:53;32.19;15.70
66752;SHT31;53663;42.676;23.238;2024-02-15T08:47:31;31.72;15.32
66752;SHT31;53663;42.676;23.238;2024-02-15T08:50:11;31.18;15.53
66752;SHT31;53663;42.676;23.238;2024-02-15T08:52:48;31.43;15.56
66752;SHT31;53663;42.676;23.238;2024-02-15T08:55:25;32.78;14.60
66752;SHT31;53663;42.676;23.238;2024-02-15T08:58:08;32.88;14.70
66752;SHT31;53663;42.676;23.238;2024-02-15T09:00:42;31.65;15.35
66752;SHT31;53663;42.676;23.238;2024-02-15T09:03:29;32.78;14.87
66752;SHT31;53663;42.676;23.238;2024-02-15T09:06:04;32.37;15.35
66752;SHT31;53663;42.676;23.238;2024-02-15T09:08:54;32.41;14.62
66752;SHT31;53663;42.676;23.238;2024-02-15T09:11:39;31.97;15.50
66752;SHT31;53663;42.676;23.238;2024-02-15T09:14:15;32.17;15.17
66752;SHT31;53663;42.676;23.238;2024-02-15T09:16:49;32.32;15.13
66752;SHT31;53663;42.676;23.238;2024-02-15T09:19:28;31.41;15.79
66752;SHT31;53663;42.676;23.238;2024-02-15T09:22:09;31.97;14.69
66752;SHT31;53663;42.676;23.238;2024-02-15T09:25:18;32.10;14.86
66752;SHT31;53663;42.676;23.238;2024-02-15T09:27:50;32.94;14.44
66752;SHT31;53663;42.676;23.238;2024-02-15T09:30:17;34.77;13.90
66752;SHT31;53663;42.676;23.238;2024-02-15T09:32:54;32.61;14.86
66752;SHT31;53663;42.676;23.238;2024-02-15T09:35:23;32.72;15.11
66752;SHT31;53663;42.676;23.238;2024-02-15T09:37:51;32.88;14.82
66752;SHT31;53663;42.676;23.238;2024-02-15T09:40:38;32.95;14.89
66752;SHT31;53663;42.676;23.238;2024-02-15T09:43:16;32.65;15.56
66752;SHT31;53663;42.676;23.238;2024-02-15T09:45:42;33.17;14.83
66752;SHT31;53663;42.676;23.238;2024-02-15T09:48:26;33.30;14.41
66752;SHT31;53663;42.676;23.238;2024-02-15T09:51:09;30.85;15.80
66752;SHT31;53663;42.676;23.238;2024-02-15T09:53:40;31.34;16.38
66752;SHT31;53663;42.676;23.238;2024-02-15T09:56:48;31.53;15.70
66752;SHT31;53663;42.676;23.238;2024-02-15T09:59:24;33.34;14.74
66752;SHT31;53663;42.676;23.238;2024-02-15T10:01:59;33.23;14.49
66752;SHT31;53663;42.676;23.238;2024-02-15T10:04:26;33.80;14.22
66752;SHT31;53663;42.676;23.238;2024-02-15T10:06:51;32.16;15.32
66752;SHT31;53663;42.676;23.238;2024-02-15T10:09:28;32.82;15.17
66752;SHT31;53663;42.676;23.238;2024-02-15T10:12:14;31.41;15.93
66752;SHT31;53663;42.676;23.238;2024-02-15T10:14:54;31.90;15.21
66752;SHT31;53663;42.676;23.238;2024-02-15T10:17:53;32.98;14.61
66752;SHT31;53663;42.676;23.238;2024-02-15T10:20:19;34.60;13.86
66752;SHT31;53663;42.676;23.238;2024-02-15T10:25:54;33.65;14.29
66752;SHT31;53663;42.676;23.238;2024-02-15T10:29:06;34.50;13.69
66752;SHT31;53663;42.676;23.238;2024-02-15T10:32:03;35.64;13.36
66752;SHT31;53663;42.676;23.238;2024-02-15T10:34:47;33.51;14.46
66752;SHT31;53663;42.676;23.238;2024-02-15T10:37:23;34.02;14.15
66752;SHT31;53663;42.676;23.238;2024-02-15T10:42:48;35.24;13.71
66752;SHT31;53663;42.676;23.238;2024-02-15T10:45:35;32.88;15.30
66752;SHT31;53663;42.676;23.238;2024-02-15T10:48:09;33.43;14.66
66752;SHT31;53663;42.676;23.238;2024-02-15T10:50:52;32.95;14.91
66752;SHT31;53663;42.676;23.238;2024-02-15T10:53:39;34.13;14.37
66752;SHT31;53663;42.676;23.238;2024-02-15T10:56:27;34.79;13.83
66752;SHT31;53663;42.676;23.238;2024-02-15T11:01:44;34.50;14.12
66752;SHT31;53663;42.676;23.238;2024-02-15T11:04:23;34.91;14.70
66752;SHT31;53663;42.676;23.238;2024-02-15T11:07:07;33.82;14.37
66752;SHT31;53663;42.676;23.238;2024-02-15T11:09:47;34.02;14.47
66752;SHT31;53663;42.676;23.238;2024-02-15T11:12:15;33.39;14.37
66752;SHT31;53663;42.676;23.238;2024-02-15T11:14:49;33.19;14.40
66752;SHT31;53663;42.676;23.238;2024-02-15T11:17:44;32.38;15.36
66752;SHT31;53663;42.676;23.238;2024-02-15T11:20:58;30.47;16.24
66752;SHT31;53663;42.676;23.238;2024-02-15T11:23:04;30.41;16.69
66752;SHT31;53663;42.676;23.238;2024-02-15T11:25:38;29.17;17.89
66752;SHT31;53663;42.676;23.238;2024-02-15T11:30:54;27.05;19.02
66752;SHT31;53663;42.676;23.238;2024-02-15T11:33:36;26.37;19.54
66752;SHT31;53663;42.676;23.238;2024-02-15T11:36:15;25.70;20.50
66752;SHT31;53663;42.676;23.238;2024-02-15T11:38:43;24.03;21.96
66752;SHT31;53663;42.676;23.238;2024-02-15T11:41:20;22.80;22.99
66752;SHT31;53663;42.676;23.238;2024-02-15T11:43:51;22.28;23.63
66752;SHT31;53663;42.676;23.238;2024-02-15T11:46:21;21.67;24.59
66752;SHT31;53663;42.676;23.238;2024-02-15T11:48:48;21.07;25.12
66752;SHT31;53663;42.676;23.238;2024-02-15T11:51:25;20.74;25.72
66752;SHT31;53663;42.676;23.238;2024-02-15T11:56:53;18.86;28.79
66752;SHT31;53663;42.676;23.238;2024-02-15T12:02:51;18.28;29.48
66752;SHT31;53663;42.676;23.238;2024-02-15T12:05:57;18.25;30.13
66752;SHT31;53663;42.676;23.238;2024-02-15T12:08:54;17.90;29.89
66752;SHT31;53663;42.676;23.238;2024-02-15T12:11:57;17.69;29.98
66752;SHT31;53663;42.676;23.238;2024-02-15T12:14:43;17.56;30.83
66752;SHT31;53663;42.676;23.238;2024-02-15T12:17:38;16.85;30.91
66752;SHT31;53663;42.676;23.238;2024-02-15T12:20:22;16.53;32.15
66752;SHT31;53663;42.676;23.238;2024-02-15T12:22:51;16.72;32.75
66752;SHT31;53663;42.676;23.238;2024-02-15T12:25:18;16.84;31.52
66752;SHT31;53663;42.676;23.238;2024-02-15T12:27:46;16.50;33.55
66752;SHT31;53663;42.676;23.238;2024-02-15T12:30:18;16.57;32.68
66752;SHT31;53663;42.676;23.238;2024-02-15T12:32:50;16.41;33.23
66752;SHT31;53663;42.676;23.238;2024-02-15T12:35:20;16.71;32.57
66752;SHT31;53663;42.676;23.238;2024-02-15T12:37:46;16.96;32.11
66752;SHT31;53663;42.676;23.238;2024-02-15T12:40:18;16.53;33.60
66752;SHT31;53663;42.676;23.238;2024-02-15T12:42:44;16.36;34.56
66752;SHT31;53663;42.676;23.238;2024-02-15T12:45:19;16.99;33.08
66752;SHT31;53663;42.676;23.238;2024-02-15T12:47:52;16.81;32.36
66752;SHT31;53663;42.676;23.238;2024-02-15T12:50:18;15.71;34.04
66752;SHT31;53663;42.676;23.238;2024-02-15T12:52:45;16.41;33.50
66752;SHT31;53663;42.676;23.238;2024-02-15T12:55:24;18.74;29.64
66752;SHT31;53663;42.676;23.238;2024-02-15T12:58:16;20.41;27.57
66752;SHT31;53663;42.676;23.238;2024-02-15T13:00:47;21.49;25.88
66752;SHT31;53663;42.676;23.238;2024-02-15T13:03:47;22.70;24.44
66752;SHT31;53663;42.676;23.238;2024-02-15T13:07:34;22.77;24.21
66752;SHT31;53663;42.676;23.238;2024-02-15T13:10:07;22.98;23.90
66752;SHT31;53663;42.676;23.238;2024-02-15T13:13:26;22.16;24.16
66752;SHT31;53663;42.676;23.238;2024-02-15T13:16:52;21.22;26.05
66752;SHT31;53663;42.676;23.238;2024-02-15T13:19:18;20.95;26.11
66752;SHT31;53663;42.676;23.238;2024-02-15T13:22:17;20.92;26.09
66752;SHT31;53663;42.676;23.238;2024-02-15T13:28:27;21.68;25.53
66752;SHT31;53663;42.676;23.238;2024-02-15T13:30:56;21.70;25.30
66752;SHT31;53663;42.676;23.238;2024-02-15T13:33:45;22.84;24.02
66752;SHT31;53663;42.676;23.238;2024-02-15T13:36:36;23.12;23.48
66752;SHT31;53663;42.676;23.238;2024-02-15T13:39:07;22.42;24.21
66752;SHT31;53663;42.676;23.238;2024-02-15T13:41:41;21.95;24.85
66752;SHT31;53663;42.676;23.238;2024-02-15T13:44:14;22.32;24.23
66752;SHT31;53663;42.676;23.238;2024-02-15T13:47:01;22.61;24.17
66752;SHT31;53663;42.676;23.238;2024-02-15T13:49:59;22.39;25.09
66752;SHT31;53663;42.676;23.238;2024-02-15T13:53:11;22.47;24.06
66752;SHT31;53663;42.676;23.238;2024-02-15T13:56:05;21.94;25.11
66752;SHT31;53663;42.676;23.238;2024-02-15T13:59:39;21.54;24.95
66752;SHT31;53663;42.676;23.238;2024-02-15T14:02:17;19.19;28.29
66752;SHT31;53663;42.676;23.238;2024-02-15T14:04:42;17.30;31.24
66752;SHT31;53663;42.676;23.238;2024-02-15T14:07:08;16.08;32.56
66752;SHT31;53663;42.676;23.238;2024-02-15T14:09:34;15.54;33.69
66752;SHT31;53663;42.676;23.238;2024-02-15T14:12:00;15.14;34.95
66752;SHT31;53663;42.676;23.238;2024-02-15T14:14:31;14.80;35.28
66752;SHT31;53663;42.676;23.238;2024-02-15T14:16:58;14.11;37.00
66752;SHT31;53663;42.676;23.238;2024-02-15T14:19:24;13.71;37.78
66752;SHT31;53663;42.676;23.238;2024-02-15T14:21:51;13.57;37.89
66752;SHT31;53663;42.676;23.238;2024-02-15T14:24:19;13.20;38.94
66752;SHT31;53663;42.676;23.238;2024-02-15T14:26:48;13.22;39.09
66752;SHT31;53663;42.676;23.238;2024-02-15T14:29:14;13.04;38.75
66752;SHT31;53663;42.676;23.238;2024-02-15T14:31:40;12.92;39.23
66752;SHT31;53663;42.676;23.238;2024-02-15T14:34:31;12.91;39.01
66752;SHT31;53663;42.676;23.238;2024-02-15T14:36:57;12.60;40.76
66752;SHT31;53663;42.676;23.238;2024-02-15T14:39:26;12.60;39.80
66752;SHT31;53663;42.676;23.238;2024-02-15T14:41:52;12.68;40.54
66752;SHT31;53663;42.676;23.238;2024-02-15T14:44:19;12.71;40.93
66752;SHT31;53663;42.676;23.238;2024-02-15T14:46:45;12.61;40.22
66752;SHT31;53663;42.676;23.238;2024-02-15T14:49:12;12.59;40.73
66752;SHT31;53663;42.676;23.238;2024-02-15T14:51:38;12.39;41.03
66752;SHT31;53663;42.676;23.238;2024-02-15T14:54:04;12.25;40.63
66752;SHT31;53663;42.676;23.238;2024-02-15T14:56:30;11.96;41.88
66752;SHT31;53663;42.676;23.238;2024-02-15T14:58:57;11.82;42.12
66752;SHT31;53663;42.676;23.238;2024-02-15T15:01:23;11.78;42.87
66752;SHT31;53663;42.676;23.238;2024-02-15T15:03:53;11.44;43.25
66752;SHT31;53663;42.676;23.238;2024-02-15T15:06:20;11.45;43.59
66752;SHT31;53663;42.676;23.238;2024-02-15T15:09:05;11.51;43.83
66752;SHT31;53663;42.676;23.238;2024-02-15T15:11:49;11.48;43.40
66752;SHT31;53663;42.676;23.238;2024-02-15T15:14:34;11.24;44.19
66752;SHT31;53663;42.676;23.238;2024-02-15T15:17:11;11.30;44.20
66752;SHT31;53663;42.676;23.238;2024-02-15T15:19:50;11.28;44.08
66752;SHT31;53663;42.676;23.238;2024-02-15T15:22:16;11.36;44.62
66752;SHT31;53663;42.676;23.238;2024-02-15T15:24:45;11.34;44.03
66752;SHT31;53663;42.676;23.238;2024-02-15T15:27:11;11.12;44.80
66752;SHT31;53663;42.676;23.238;2024-02-15T15:29:53;10.92;45.22
66752;SHT31;53663;42.676;23.238;2024-02-15T15:32:28;10.96;45.36
66752;SHT31;53663;42.676;23.238;2024-02-15T15:35:27;10.88;45.98
66752;SHT31;53663;42.676;23.238;2024-02-15T15:38:13;10.72;46.72
66752;SHT31;53663;42.676;23.238;2024-02-15T15:40:39;10.58;46.78
66752;SHT31;53663;42.676;23.238;2024-02-15T15:43:33;10.48;46.84
66752;SHT31;53663;42.676;23.238;2024-02-15T15:46:47;10.22;47.23
66752;SHT31;53663;42.676;23.238;2024-02-15T15:49:19;10.20;47.31
66752;SHT31;53663;42.676;23.238;2024-02-15T15:51:46;10.08;47.72
66752;SHT31;53663;42.676;23.238;2024-02-15T15:54:17;9.90;48.40
66752;SHT31;53663;42.676;23.238;2024-02-15T15:56:56;9.80;48.46
66752;SHT31;53663;42.676;23.238;2024-02-15T15:59:37;9.62;49.18
66752;SHT31;53663;42.676;23.238;2024-02-15T16:02:07;9.60;49.12
66752;SHT31;53663;42.676;23.238;2024-02-15T16:04:36;9.69;49.12
66752;SHT31;53663;42.676;23.238;2024-02-15T16:07:31;9.65;49.54
66752;SHT31;53663;42.676;23.238;2024-02-15T16:10:14;9.69;48.81
66752;SHT31;53663;42.676;23.238;2024-02-15T16:12:55;9.55;49.27
66752;SHT31;53663;42.676;23.238;2024-02-15T16:15:44;9.49;49.26
66752;SHT31;53663;42.676;23.238;2024-02-15T16:18:34;9.28;49.88
66752;SHT31;53663;42.676;23.238;2024-02-15T16:21:49;8.94;50.86
66752;SHT31;53663;42.676;23.238;2024-02-15T16:24:29;8.80;50.46
66752;SHT31;53663;42.676;23.238;2024-02-15T16:27:11;8.88;50.38
66752;SHT31;53663;42.676;23.238;2024-02-15T16:29:59;8.73;51.31
66752;SHT31;53663;42.676;23.238;2024-02-15T16:32:51;8.41;52.16
66752;SHT31;53663;42.676;23.238;2024-02-15T16:35:40;8.33;52.61
66752;SHT31;53663;42.676;23.238;2024-02-15T16:38:23;8.43;52.63
66752;SHT31;53663;42.676;23.238;2024-02-15T16:41:07;8.35;52.86
66752;SHT31;53663;42.676;23.238;2024-02-15T16:43:51;8.39;52.85
66752;SHT31;53663;42.676;23.238;2024-02-15T16:46:50;8.36;52.75
66752;SHT31;53663;42.676;23.238;2024-02-15T16:49:45;8.29;53.16
66752;SHT31;53663;42.676;23.238;2024-02-15T16:52:45;8.29;52.90
66752;SHT31;53663;42.676;23.238;2024-02-15T16:55:32;8.43;52.84
66752;SHT31;53663;42.676;23.238;2024-02-15T16:58:30;8.31;53.42
66752;SHT31;53663;42.676;23.238;2024-02-15T17:00:56;8.26;53.86
66752;SHT31;53663;42.676;23.238;2024-02-15T17:03:22;8.24;53.57
66752;SHT31;53663;42.676;23.238;2024-02-15T17:05:48;8.20;53.34
66752;SHT31;53663;42.676;23.238;2024-02-15T17:08:14;8.06;53.90
66752;SHT31;53663;42.676;23.238;2024-02-15T17:10:40;8.04;53.57
66752;SHT31;53663;42.676;23.238;2024-02-15T17:13:06;7.87;54.00
66752;SHT31;53663;42.676;23.238;2024-02-15T17:15:33;7.83;54.77
66752;SHT31;53663;42.676;23.238;2024-02-15T17:18:00;7.67;55.19
66752;SHT31;53663;42.676;23.238;2024-02-15T17:20:26;7.80;54.79
66752;SHT31;53663;42.676;23.238;2024-02-15T17:22:52;7.63;54.97
66752;SHT31;53663;42.676;23.238;2024-02-15T17:25:18;7.53;54.99
66752;SHT31;53663;42.676;23.238;2024-02-15T17:27:44;7.45;55.57
66752;SHT31;53663;42.676;23.238;2024-02-15T17:30:17;7.30;55.93
66752;SHT31;53663;42.676;23.238;2024-02-15T17:33:25;7.11;56.52
66752;SHT31;53663;42.676;23.238;2024-02-15T17:36:09;6.99;56.52
66752;SHT31;53663;42.676;23.238;2024-02-15T17:39:02;6.92;57.03
66752;SHT31;53663;42.676;23.238;2024-02-15T17:42:01;6.78;57.67
66752;SHT31;53663;42.676;23.238;2024-02-15T17:44:50;6.73;57.64